createdAt,value
2023-01-02T00:00:31.226Z,5.88
2023-01-02T00:02:59.301Z,5.97
2023-01-02T00:05:27.670Z,5.95
2023-01-02T00:07:55.570Z,5.91
2023-01-02T00:10:23.476Z,5.89
2023-01-02T00:12:52.811Z,5.86
2023-01-02T00:15:20.811Z,5.82
2023-01-02T00:17:48.731Z,5.78
2023-01-02T00:20:16.714Z,5.67
2023-01-02T00:22:44.703Z,5.65
2023-01-02T00:25:12.651Z,5.59
2023-01-02T00:27:40.651Z,5.55
2023-01-02T00:30:11.719Z,5.48
2023-01-02T00:32:39.671Z,5.41
2023-01-02T00:35:08.599Z,5.35
2023-01-02T00:37:36.530Z,5.32
2023-01-02T00:40:04.913Z,5.36
2023-01-02T00:42:32.866Z,5.30
2023-01-02T00:45:00.822Z,5.37
2023-01-02T00:47:30.153Z,5.31
2023-01-02T00:49:58.117Z,5.35
2023-01-02T00:52:26.045Z,5.32
2023-01-02T00:54:54.009Z,5.31
2023-01-02T00:57:22.018Z,5.34
2023-01-02T00:59:49.938Z,5.34
2023-01-02T01:02:17.947Z,5.21
2023-01-02T01:04:47.396Z,5.17
2023-01-02T01:07:15.376Z,5.27
2023-01-02T01:09:43.326Z,5.31
2023-01-02T01:12:11.288Z,5.39
2023-01-02T01:14:39.231Z,5.36
2023-01-02T01:17:07.158Z,5.36
2023-01-02T01:19:35.747Z,5.29
2023-01-02T01:22:05.058Z,5.28
2023-01-02T01:24:32.955Z,5.27
2023-01-02T01:27:00.895Z,5.20
2023-01-02T01:29:28.881Z,5.15
2023-01-02T01:31:56.878Z,5.01
2023-01-02T01:34:24.834Z,5.00
2023-01-02T01:36:52.759Z,4.98
2023-01-02T01:39:22.137Z,4.92
2023-01-02T01:41:50.055Z,4.84
2023-01-02T01:44:45.927Z,4.82
2023-01-02T01:47:17.842Z,4.79
2023-01-02T01:49:45.809Z,4.78
2023-01-02T01:52:14.898Z,4.73
2023-01-02T01:54:46.424Z,4.71
2023-01-02T01:57:15.955Z,4.65
2023-01-02T01:59:43.942Z,4.63
2023-01-02T02:02:12.025Z,4.55
2023-01-02T02:04:40.092Z,4.42
2023-01-02T02:07:08.035Z,4.41
2023-01-02T02:09:38.368Z,4.43
2023-01-02T02:12:07.849Z,4.36
2023-01-02T02:14:35.835Z,4.35
2023-01-02T02:17:06.323Z,4.32
2023-01-02T02:20:00.716Z,4.32
2023-01-02T02:22:37.238Z,4.19
2023-01-02T02:25:24.563Z,4.26
2023-01-02T02:28:04.291Z,4.24
2023-01-02T02:30:33.805Z,4.16
2023-01-02T02:33:27.817Z,4.11
2023-01-02T02:36:00.981Z,4.06
2023-01-02T02:38:36.912Z,4.01
2023-01-02T02:41:07.055Z,4.14
2023-01-02T02:43:41.274Z,3.89
2023-01-02T02:46:13.907Z,4.07
2023-01-02T02:48:46.913Z,4.06
2023-01-02T02:51:16.463Z,4.09
2023-01-02T02:53:45.254Z,4.06
2023-01-02T02:56:13.290Z,4.05
2023-01-02T02:58:41.504Z,4.10
2023-01-02T03:01:15.839Z,4.07
2023-01-02T03:03:43.884Z,4.11
2023-01-02T03:06:20.355Z,4.12
2023-01-02T03:08:51.225Z,4.13
2023-01-02T03:11:19.169Z,4.10
2023-01-02T03:13:50.059Z,4.07
2023-01-02T03:16:21.094Z,3.95
2023-01-02T03:18:53.618Z,4.07
2023-01-02T03:21:27.925Z,3.98
2023-01-02T03:23:58.251Z,3.96
2023-01-02T03:26:28.118Z,4.02
2023-01-02T03:28:59.433Z,4.06
2023-01-02T03:31:29.096Z,4.02
2023-01-02T03:34:02.357Z,4.09
2023-01-02T03:36:30.845Z,4.15
2023-01-02T03:39:01.812Z,4.12
2023-01-02T03:41:30.963Z,4.14
2023-01-02T03:43:58.906Z,4.17
2023-01-02T03:46:32.643Z,4.07
2023-01-02T03:49:02.886Z,4.19
2023-01-02T03:51:30.877Z,4.12
2023-01-02T03:53:59.540Z,4.19
2023-01-02T03:56:28.547Z,4.28
2023-01-02T03:58:58.162Z,4.28
2023-01-02T04:01:33.806Z,4.28
2023-01-02T04:04:04.569Z,4.23
2023-01-02T04:06:34.031Z,4.32
2023-01-02T04:09:04.830Z,4.47
2023-01-02T04:11:32.785Z,4.34
2023-01-02T04:14:03.250Z,4.28
2023-01-02T04:16:34.098Z,4.18
2023-01-02T04:19:03.615Z,4.15
2023-01-02T04:21:32.438Z,4.11
2023-01-02T04:24:01.372Z,4.05
2023-01-02T04:26:30.765Z,3.91
2023-01-02T04:28:59.863Z,3.90
2023-01-02T04:31:29.796Z,3.84
2023-01-02T04:34:00.389Z,3.81
2023-01-02T04:36:28.373Z,3.62
2023-01-02T04:38:56.389Z,3.68
2023-01-02T04:41:27.114Z,3.55
2023-01-02T04:43:55.432Z,3.56
2023-01-02T04:46:23.525Z,3.57
2023-01-02T04:48:51.590Z,3.54
2023-01-02T04:51:20.891Z,3.55
2023-01-02T04:53:48.856Z,3.54
2023-01-02T04:56:16.827Z,3.55
2023-01-02T04:58:45.067Z,3.52
2023-01-02T05:01:13.626Z,3.49
2023-01-02T05:03:41.760Z,3.43
2023-01-02T05:06:09.890Z,3.31
2023-01-02T05:08:39.259Z,3.38
2023-01-02T05:11:07.952Z,3.43
2023-01-02T05:13:35.971Z,3.44
2023-01-02T05:16:04.475Z,3.45
2023-01-02T05:18:32.616Z,3.49
2023-01-02T05:21:03.932Z,3.51
2023-01-02T05:23:49.017Z,3.51
2023-01-02T05:26:18.572Z,3.52
2023-01-02T05:28:46.637Z,3.53
2023-01-02T05:31:14.626Z,3.48
2023-01-02T05:33:42.623Z,3.54
2023-01-02T05:36:10.923Z,3.67
2023-01-02T05:38:39.890Z,3.68
2023-01-02T05:41:08.325Z,3.74
2023-01-02T05:43:38.222Z,3.80
2023-01-02T05:46:10.330Z,3.87
2023-01-02T05:48:38.343Z,3.83
2023-01-02T05:51:06.817Z,3.80
2023-01-02T05:53:34.839Z,3.86
2023-01-02T05:56:07.043Z,3.84
2023-01-02T05:58:35.363Z,3.83
2023-01-02T06:01:08.407Z,3.85
2023-01-02T06:03:36.606Z,3.89
2023-01-02T06:06:05.787Z,3.90
2023-01-02T06:08:33.791Z,3.91
2023-01-02T06:11:01.787Z,3.76
2023-01-02T06:13:30.056Z,3.94
2023-01-02T06:15:58.254Z,3.93
2023-01-02T06:18:27.662Z,3.89
2023-01-02T06:20:59.247Z,3.89
2023-01-02T06:23:27.239Z,3.82
2023-01-02T06:25:55.219Z,3.87
2023-01-02T06:28:23.162Z,3.96
2023-01-02T06:30:51.082Z,3.94
2023-01-02T06:33:19.046Z,3.83
2023-01-02T06:35:48.351Z,4.15
2023-01-02T06:38:16.346Z,4.27
2023-01-02T06:40:53.555Z,4.39
2023-01-02T06:43:21.584Z,4.48
2023-01-02T06:45:49.726Z,4.54
2023-01-02T06:48:17.784Z,4.46
2023-01-02T06:50:45.925Z,4.71
2023-01-02T06:53:15.309Z,4.79
2023-01-02T06:55:51.874Z,4.84
2023-01-02T06:58:19.979Z,4.97
2023-01-02T07:00:47.986Z,5.02
2023-01-02T07:03:16.014Z,5.16
2023-01-02T07:05:43.976Z,5.33
2023-01-02T07:08:11.977Z,5.44
2023-01-02T07:10:41.328Z,5.54
2023-01-02T07:13:09.288Z,5.67
2023-01-02T07:15:37.360Z,5.79
2023-01-02T07:18:05.360Z,5.83
2023-01-02T07:20:33.285Z,5.92
2023-01-02T07:23:01.212Z,6.07
2023-01-02T07:25:29.194Z,6.14
2023-01-02T07:28:00.204Z,6.25
2023-01-02T07:30:28.205Z,6.36
2023-01-02T07:32:56.131Z,6.44
2023-01-02T07:35:24.041Z,6.49
2023-01-02T07:37:52.573Z,6.60
2023-01-02T07:40:20.539Z,6.71
2023-01-02T07:42:48.475Z,6.81
2023-01-02T07:45:17.957Z,6.91
2023-01-02T07:47:45.895Z,7.12
2023-01-02T07:50:13.906Z,7.26
2023-01-02T07:52:43.380Z,7.51
2023-01-02T07:55:11.542Z,7.65
2023-01-02T07:57:39.479Z,7.79
2023-01-02T08:00:08.590Z,8.06
2023-01-02T08:02:38.011Z,8.19
2023-01-02T08:05:06.822Z,8.37
2023-01-02T08:07:38.132Z,8.54
2023-01-02T08:10:10.960Z,8.66
2023-01-02T08:12:38.988Z,8.80
2023-01-02T08:15:07.548Z,8.87
2023-01-02T08:17:35.480Z,9.06
2023-01-02T08:20:08.246Z,9.19
2023-01-02T08:22:36.485Z,9.36
2023-01-02T08:25:04.491Z,9.47
2023-01-02T08:27:32.456Z,9.64
2023-01-02T08:30:00.388Z,9.82
2023-01-02T08:32:28.363Z,9.97
2023-01-02T08:34:56.327Z,10.16
2023-01-02T08:37:25.633Z,10.26
2023-01-02T08:39:53.639Z,10.44
2023-01-02T08:42:21.548Z,10.52
2023-01-02T08:44:49.510Z,10.70
2023-01-02T08:47:17.460Z,10.95
2023-01-02T08:49:45.363Z,11.02
2023-01-02T08:52:13.323Z,11.22
2023-01-02T08:54:42.616Z,11.28
2023-01-02T08:57:10.540Z,11.47
2023-01-02T08:59:38.524Z,11.68
2023-01-02T09:02:06.591Z,11.89
2023-01-02T09:04:34.630Z,12.06
2023-01-02T09:07:02.563Z,12.38
2023-01-02T09:09:30.559Z,12.58
2023-01-02T09:12:00.452Z,12.77
2023-01-02T09:14:28.407Z,12.94
2023-01-02T09:16:58.024Z,13.12
2023-01-02T09:19:26.015Z,13.23
2023-01-02T09:21:54.106Z,13.24
2023-01-02T09:24:22.071Z,13.28
2023-01-02T09:26:50.022Z,13.33
2023-01-02T09:29:19.772Z,13.66
2023-01-02T09:31:47.717Z,13.90
2023-01-02T09:34:16.845Z,14.50
2023-01-02T09:36:44.847Z,14.85
2023-01-02T09:39:12.797Z,15.18
2023-01-02T09:41:41.209Z,15.47
2023-01-02T09:44:12.368Z,15.71
2023-01-02T09:46:45.636Z,15.63
2023-01-02T09:49:14.685Z,15.56
2023-01-02T09:51:42.609Z,15.87
2023-01-02T09:54:15.722Z,16.17
2023-01-02T09:56:43.703Z,16.42
2023-01-02T09:59:14.099Z,17.02
2023-01-02T10:01:52.613Z,17.84
2023-01-02T10:04:23.191Z,18.40
2023-01-02T10:06:54.318Z,18.51
2023-01-02T10:09:24.528Z,18.78
2023-01-02T10:11:57.655Z,19.04
